Time;durP1;ratioP1;P1;durP2;ratioP2;P2;SDS_P1;SDS_P2;PMS_P1;PMS_P2;Temp;Humidity;BMP_temperature;BMP_pressure;BME280_temperature;BME280_humidity;BME280_pressure;Samples;Min_cycle;Max_cycle;Signal;HPM_P1;HPM_P2
2023/01/22 00:01:24;;;;;;;23.47;17.03;;;-2.00;99.90;;;;;;6125402;23;20446;-78
2023/01/22 00:03:53;;;;;;;24.77;17.90;;;-1.90;99.90;;;;;;6124855;23;20470;-76
2023/01/22 00:06:22;;;;;;;22.87;17.43;;;-2.00;99.90;;;;;;6124915;23;20514;-77
2023/01/22 00:08:51;;;;;;;26.47;17.53;;;-2.00;99.90;;;;;;6125148;23;20442;-75
2023/01/22 00:11:20;;;;;;;26.30;17.47;;;-2.00;99.90;;;;;;6125275;23;20422;-77
2023/01/22 00:13:49;;;;;;;23.53;17.83;;;-2.00;99.90;;;;;;6124818;23;20423;-77
2023/01/22 00:16:19;;;;;;;24.20;18.03;;;-2.00;99.90;;;;;;6125092;23;20410;-76
2023/01/22 00:18:47;;;;;;;24.87;17.33;;;-2.00;99.90;;;;;;6125326;23;20510;-77
2023/01/22 00:21:15;;;;;;;24.33;17.60;;;-2.00;99.90;;;;;;6125382;23;20442;-76
2023/01/22 00:23:43;;;;;;;25.83;18.00;;;-2.00;99.90;;;;;;6125482;23;20410;-76
2023/01/22 00:26:14;;;;;;;24.00;17.07;;;-2.00;99.90;;;;;;6125167;23;20422;-77
2023/01/22 00:28:43;;;;;;;24.20;16.87;;;-2.00;99.90;;;;;;6125553;23;20585;-76
2023/01/22 00:31:15;;;;;;;24.97;17.00;;;-2.00;99.90;;;;;;6125254;23;20720;-76
2023/01/22 00:33:45;;;;;;;24.13;17.53;;;-2.00;99.90;;;;;;6124436;23;20473;-76
2023/01/22 00:36:15;;;;;;;27.00;18.40;;;-1.90;99.90;;;;;;6125361;23;20408;-76
2023/01/22 00:38:44;;;;;;;23.93;18.27;;;-2.00;99.90;;;;;;6125176;23;20462;-76
2023/01/22 00:41:13;;;;;;;26.20;18.30;;;-1.90;99.90;;;;;;6125051;23;20453;-77
2023/01/22 00:43:41;;;;;;;23.00;17.47;;;-2.00;99.90;;;;;;6124723;23;20466;-77
2023/01/22 00:46:13;;;;;;;24.70;18.17;;;-2.00;99.90;;;;;;6125562;23;20414;-77
2023/01/22 00:48:45;;;;;;;24.17;17.57;;;-2.10;99.90;;;;;;6124946;23;20488;-76
2023/01/22 00:51:14;;;;;;;25.20;18.30;;;-2.10;99.90;;;;;;6125076;23;20440;-75
2023/01/22 00:53:46;;;;;;;26.03;18.00;;;-2.00;99.90;;;;;;6124665;23;20437;-76
2023/01/22 00:56:15;;;;;;;24.07;17.97;;;-2.10;99.90;;;;;;6125628;23;20414;-76
2023/01/22 00:58:44;;;;;;;24.57;18.43;;;-2.10;99.90;;;;;;6124521;23;20512;-76
2023/01/22 01:01:13;;;;;;;27.20;18.83;;;-2.00;99.90;;;;;;6124221;23;20426;-76
2023/01/22 01:03:43;;;;;;;25.73;18.50;;;-2.00;99.90;;;;;;6124924;23;20903;-76
2023/01/22 01:06:14;;;;;;;26.60;18.20;;;-2.00;99.90;;;;;;6125186;23;20509;-76
2023/01/22 01:08:44;;;;;;;25.83;19.37;;;-2.00;99.90;;;;;;6124933;23;20485;-76
2023/01/22 01:11:14;;;;;;;26.80;19.50;;;-2.00;99.90;;;;;;6124774;23;20452;-77
2023/01/22 01:13:44;;;;;;;25.10;17.77;;;-2.00;99.90;;;;;;6125174;23;20421;-77
2023/01/22 01:16:15;;;;;;;26.27;19.00;;;-2.00;99.90;;;;;;6124604;23;20437;-78
2023/01/22 01:18:45;;;;;;;26.33;18.93;;;-2.00;99.90;;;;;;6123846;23;20477;-78
2023/01/22 01:21:18;;;;;;;25.17;18.80;;;-1.90;99.90;;;;;;6125120;23;20430;-76
2023/01/22 01:23:46;;;;;;;26.03;19.47;;;-2.00;99.90;;;;;;6124722;23;20461;-78
2023/01/22 01:26:16;;;;;;;27.73;18.57;;;-2.00;99.90;;;;;;6124902;23;20414;-76
2023/01/22 01:28:45;;;;;;;27.17;19.27;;;-2.00;99.90;;;;;;6124612;23;20410;-77
2023/01/22 01:31:16;;;;;;;27.93;18.73;;;-2.00;99.90;;;;;;6124828;23;20786;-78
2023/01/22 01:33:46;;;;;;;25.27;19.33;;;-2.00;99.90;;;;;;6124221;23;20502;-78
2023/01/22 01:36:17;;;;;;;27.43;21.17;;;-2.00;99.90;;;;;;6124551;23;20427;-77
2023/01/22 01:38:54;;;;;;;29.23;21.23;;;-2.10;99.90;;;;;;6125353;23;20418;-77
2023/01/22 01:41:25;;;;;;;31.37;21.83;;;-2.10;99.90;;;;;;6124883;23;20500;-77
2023/01/22 01:44:08;;;;;;;28.13;20.07;;;-2.10;99.90;;;;;;6124736;23;20415;-77
2023/01/22 01:46:40;;;;;;;27.17;19.13;;;-2.10;99.90;;;;;;6124946;23;20715;-77
2023/01/22 01:49:18;;;;;;;28.63;19.87;;;-2.10;99.90;;;;;;6125147;23;20400;-77
2023/01/22 01:51:47;;;;;;;27.30;19.77;;;-2.10;99.90;;;;;;6124452;23;20426;-77
2023/01/22 01:54:16;;;;;;;26.47;19.90;;;-2.20;99.90;;;;;;6124600;23;20494;-78
2023/01/22 01:56:49;;;;;;;26.23;20.00;;;-2.20;99.90;;;;;;6124564;23;20434;-77
2023/01/22 01:59:19;;;;;;;30.03;20.03;;;-2.20;99.90;;;;;;6123895;23;20501;-77
2023/01/22 02:01:51;;;;;;;31.03;20.47;;;-2.10;99.90;;;;;;6124124;23;20428;-78
2023/01/22 02:04:24;;;;;;;29.70;20.70;;;-2.10;99.90;;;;;;6124768;23;20402;-77
2023/01/22 02:06:52;;;;;;;28.70;20.53;;;-2.20;99.90;;;;;;6124868;23;20391;-77
2023/01/22 02:09:21;;;;;;;28.93;19.87;;;-2.10;99.90;;;;;;6124044;23;20495;-78
2023/01/22 02:11:51;;;;;;;29.20;20.60;;;-2.20;99.90;;;;;;6123968;23;20429;-78
2023/01/22 02:14:27;;;;;;;28.03;20.30;;;-2.20;99.90;;;;;;6124993;23;20407;-77
2023/01/22 02:17:05;;;;;;;28.33;20.87;;;-2.20;99.90;;;;;;6124676;23;20489;-77
2023/01/22 02:19:35;;;;;;;26.20;19.50;;;-2.20;99.90;;;;;;6124865;23;20385;-77
2023/01/22 02:22:11;;;;;;;28.87;20.77;;;-2.30;99.90;;;;;;6124223;23;20449;-76
2023/01/22 02:24:39;;;;;;;28.53;20.30;;;-2.30;99.90;;;;;;6125190;23;20482;-77
2023/01/22 02:27:08;;;;;;;26.80;19.27;;;-2.30;99.90;;;;;;6123833;23;20508;-77
2023/01/22 02:29:36;;;;;;;28.23;19.73;;;-2.30;99.90;;;;;;6125387;23;20826;-76
2023/01/22 02:32:04;;;;;;;28.63;20.27;;;-2.30;99.90;;;;;;6126017;23;20894;-76
2023/01/22 02:34:33;;;;;;;31.03;21.13;;;-2.30;99.90;;;;;;6126086;23;20420;-77
2023/01/22 02:37:01;;;;;;;29.40;21.47;;;-2.40;99.90;;;;;;6125503;23;20809;-76
2023/01/22 02:39:31;;;;;;;28.33;20.57;;;-2.40;99.90;;;;;;6125793;23;20436;-78
2023/01/22 02:42:00;;;;;;;29.50;21.03;;;-2.40;99.90;;;;;;6125383;23;20422;-79
2023/01/22 02:44:31;;;;;;;29.23;21.23;;;-2.40;99.90;;;;;;6125510;23;20460;-77
2023/01/22 02:46:59;;;;;;;28.60;20.83;;;-2.40;99.90;;;;;;6126405;23;20416;-77
2023/01/22 02:49:28;;;;;;;33.10;22.47;;;-2.40;99.90;;;;;;6128483;23;20938;-77
2023/01/22 02:51:56;;;;;;;29.90;21.30;;;-2.40;99.90;;;;;;6126848;23;20438;-78
2023/01/22 02:54:26;;;;;;;29.57;21.17;;;-2.40;99.90;;;;;;6126798;23;20423;-76
2023/01/22 02:56:56;;;;;;;28.63;20.53;;;-2.50;99.90;;;;;;6126615;23;20513;-76
2023/01/22 02:59:24;;;;;;;29.40;20.53;;;-2.40;99.90;;;;;;6129195;23;20436;-78
2023/01/22 03:01:52;;;;;;;32.87;21.83;;;-2.40;99.90;;;;;;6133756;23;20493;-78
2023/01/22 03:04:21;;;;;;;29.43;21.13;;;-2.40;99.90;;;;;;6131245;23;20445;-78
2023/01/22 03:06:49;;;;;;;30.63;21.47;;;-2.40;99.90;;;;;;6129082;23;20506;-78
2023/01/22 03:09:18;;;;;;;31.40;21.60;;;-2.40;99.90;;;;;;6127090;23;20440;-78
2023/01/22 03:11:47;;;;;;;29.03;21.07;;;-2.40;99.90;;;;;;6126770;23;20446;-76
2023/01/22 03:22:33;;;;;;;29.90;20.37;;;-2.50;99.90;;;;;;6127056;23;20977;-78
2023/01/22 03:25:02;;;;;;;32.00;21.00;;;-2.50;99.90;;;;;;6127937;23;20468;-77
2023/01/22 03:27:32;;;;;;;31.40;21.20;;;-2.50;99.90;;;;;;6125336;23;20421;-78
2023/01/22 03:30:01;;;;;;;28.33;21.03;;;-2.50;99.90;;;;;;6125957;23;20391;-78
2023/01/22 03:32:31;;;;;;;30.27;20.47;;;-2.40;99.90;;;;;;6125190;23;20425;-77
2023/01/22 03:35:00;;;;;;;30.33;21.33;;;-2.40;99.90;;;;;;6125597;23;20886;-77
2023/01/22 03:37:28;;;;;;;32.17;21.97;;;-2.40;99.90;;;;;;6125052;23;20414;-77
2023/01/22 03:39:59;;;;;;;31.10;21.20;;;-2.40;99.90;;;;;;6125542;23;20432;-79
2023/01/22 03:42:29;;;;;;;29.17;21.47;;;-2.40;99.90;;;;;;6125680;23;20402;-79
2023/01/22 03:44:57;;;;;;;31.87;22.00;;;-2.40;99.90;;;;;;6125488;23;20398;-78
2023/01/22 03:47:26;;;;;;;28.83;20.47;;;-2.30;99.90;;;;;;6125746;23;20486;-77
2023/01/22 03:49:54;;;;;;;28.70;20.40;;;-2.40;99.90;;;;;;6125464;23;20394;-78
2023/01/22 03:52:23;;;;;;;31.27;21.40;;;-2.40;99.90;;;;;;6124337;23;20477;-78
2023/01/22 03:54:51;;;;;;;34.17;23.07;;;-2.40;99.90;;;;;;6125234;23;20424;-78
2023/01/22 03:57:19;;;;;;;30.80;22.77;;;-2.30;99.90;;;;;;6125384;23;20429;-77
2023/01/22 03:59:47;;;;;;;30.00;21.07;;;-2.30;99.90;;;;;;6124831;23;20897;-79
2023/01/22 04:02:18;;;;;;;30.00;21.07;;;-2.30;99.90;;;;;;6125224;23;20408;-78
2023/01/22 04:04:49;;;;;;;32.97;23.03;;;-2.30;99.90;;;;;;6125692;23;20475;-76
2023/01/22 04:07:17;;;;;;;30.30;21.97;;;-2.30;99.90;;;;;;6125394;23;20851;-77
2023/01/22 04:09:45;;;;;;;33.40;22.63;;;-2.30;99.90;;;;;;6125096;23;20423;-77
2023/01/22 04:12:13;;;;;;;33.27;22.73;;;-2.30;99.90;;;;;;6124807;23;20516;-79
2023/01/22 04:14:41;;;;;;;32.03;22.27;;;-2.30;99.90;;;;;;6125129;23;20473;-79
2023/01/22 04:17:09;;;;;;;32.37;21.77;;;-2.30;99.90;;;;;;6124774;23;20567;-78
2023/01/22 04:19:37;;;;;;;34.53;23.10;;;-2.40;99.90;;;;;;6124835;23;20501;-78
2023/01/22 04:22:07;;;;;;;32.70;21.80;;;-2.30;99.90;;;;;;6125052;23;20422;-78
2023/01/22 04:24:35;;;;;;;33.03;23.17;;;-2.30;99.90;;;;;;6125014;23;20451;-77
2023/01/22 04:27:03;;;;;;;32.60;23.17;;;-2.30;99.90;;;;;;6125622;23;20448;-76
2023/01/22 04:29:32;;;;;;;32.83;22.57;;;-2.30;99.90;;;;;;6124998;23;20901;-76
2023/01/22 04:32:00;;;;;;;30.63;21.90;;;-2.30;99.90;;;;;;6124524;23;20838;-78
2023/01/22 04:34:28;;;;;;;32.30;23.13;;;-2.30;99.90;;;;;;6124795;23;20449;-77
2023/01/22 04:36:56;;;;;;;30.87;21.83;;;-2.30;99.90;;;;;;6125739;23;20490;-77
2023/01/22 04:39:25;;;;;;;32.40;22.93;;;-2.30;99.90;;;;;;6125303;23;20434;-77
2023/01/22 04:41:53;;;;;;;30.03;21.67;;;-2.30;99.90;;;;;;6124463;23;20806;-79
2023/01/22 04:44:21;;;;;;;31.77;22.27;;;-2.30;99.90;;;;;;6124684;23;20446;-77
2023/01/22 04:46:49;;;;;;;34.27;23.00;;;-2.40;99.90;;;;;;6125336;23;20504;-77
2023/01/22 04:49:17;;;;;;;33.23;22.13;;;-2.30;99.90;;;;;;6124514;23;20409;-77
2023/01/22 04:51:46;;;;;;;32.03;22.70;;;-2.40;99.90;;;;;;6124930;23;20452;-77
2023/01/22 04:54:18;;;;;;;29.80;20.97;;;-2.50;99.90;;;;;;6124572;23;20414;-76
2023/01/22 04:56:48;;;;;;;30.93;21.67;;;-2.50;99.90;;;;;;6124606;23;20414;-77
2023/01/22 04:59:16;;;;;;;31.63;22.20;;;-2.60;99.90;;;;;;6124627;23;20469;-78
2023/01/22 05:01:44;;;;;;;29.77;21.57;;;-2.60;99.90;;;;;;6124743;23;20417;-76
2023/01/22 05:04:13;;;;;;;30.83;22.47;;;-2.70;99.90;;;;;;6124190;23;21029;-78
2023/01/22 05:06:44;;;;;;;32.87;22.17;;;-2.80;99.90;;;;;;6124789;23;20501;-78
2023/01/22 05:09:12;;;;;;;31.77;21.27;;;-2.80;99.90;;;;;;6125103;23;20422;-78
2023/01/22 05:11:41;;;;;;;31.77;22.37;;;-2.90;99.90;;;;;;6124768;23;20441;-79
2023/01/22 05:14:10;;;;;;;34.90;22.07;;;-2.90;99.90;;;;;;6124861;23;20413;-78
2023/01/22 05:16:39;;;;;;;30.10;21.10;;;-3.00;99.90;;;;;;6124341;23;20422;-78
2023/01/22 05:19:07;;;;;;;33.67;22.53;;;-3.10;99.90;;;;;;6124840;23;20414;-79
2023/01/22 05:21:35;;;;;;;33.77;22.37;;;-3.20;99.90;;;;;;6123893;23;20760;-78
2023/01/22 05:24:04;;;;;;;33.13;22.73;;;-3.20;99.90;;;;;;6124296;23;20997;-78
2023/01/22 05:26:34;;;;;;;34.27;22.47;;;-3.30;99.90;;;;;;6124346;23;20425;-78
2023/01/22 05:29:02;;;;;;;32.47;22.50;;;-3.40;99.90;;;;;;6125018;23;20414;-78
2023/01/22 05:31:32;;;;;;;32.73;21.90;;;-3.50;99.90;;;;;;6123937;23;20410;-78
2023/01/22 05:34:00;;;;;;;33.90;22.53;;;-3.50;99.90;;;;;;6124320;23;20418;-79
2023/01/22 05:36:28;;;;;;;31.80;20.60;;;-3.60;99.90;;;;;;6124905;23;20417;-78
2023/01/22 05:38:57;;;;;;;32.83;21.67;;;-3.70;99.90;;;;;;6124492;23;20514;-78
2023/01/22 05:41:25;;;;;;;37.87;23.67;;;-3.70;99.90;;;;;;6124819;23;20413;-78
2023/01/22 05:43:53;;;;;;;37.23;22.13;;;-3.70;99.90;;;;;;6124248;23;20517;-78
2023/01/22 05:46:23;;;;;;;35.50;23.10;;;-3.80;99.90;;;;;;6124970;23;20410;-79
2023/01/22 05:48:52;;;;;;;31.17;22.27;;;-3.80;99.90;;;;;;6124670;23;20402;-78
2023/01/22 05:51:23;;;;;;;38.90;23.80;;;-3.80;99.90;;;;;;6124665;23;20438;-78
2023/01/22 05:53:52;;;;;;;33.20;22.47;;;-3.80;99.90;;;;;;6124451;23;20387;-78
2023/01/22 05:56:25;;;;;;;34.33;22.10;;;-3.80;99.90;;;;;;6123861;23;20822;-79
2023/01/22 05:58:53;;;;;;;35.67;23.07;;;-3.70;99.90;;;;;;6124716;23;20418;-78
2023/01/22 06:01:21;;;;;;;32.83;22.33;;;-3.70;99.90;;;;;;6123970;23;20417;-78
2023/01/22 06:03:50;;;;;;;35.40;23.27;;;-3.70;99.90;;;;;;6124687;23;20422;-78
2023/01/22 06:06:22;;;;;;;35.23;23.97;;;-3.70;99.90;;;;;;6126549;23;20747;-78
2023/01/22 06:08:52;;;;;;;37.77;24.17;;;-3.60;99.90;;;;;;6126273;23;20421;-78
2023/01/22 06:11:23;;;;;;;33.67;22.80;;;-3.60;99.90;;;;;;6126080;23;20417;-77
2023/01/22 06:13:51;;;;;;;36.13;24.50;;;-3.60;99.90;;;;;;6125934;23;20432;-78
2023/01/22 06:16:19;;;;;;;35.73;23.73;;;-3.50;99.90;;;;;;6126682;23;20775;-78
2023/01/22 06:18:47;;;;;;;33.57;22.93;;;-3.50;99.90;;;;;;6126367;23;20452;-78
2023/01/22 06:21:15;;;;;;;36.57;23.43;;;-3.50;99.90;;;;;;6127025;23;20501;-77
2023/01/22 06:23:45;;;;;;;38.57;23.30;;;-3.50;99.90;;;;;;6125679;23;20410;-77
2023/01/22 06:26:13;;;;;;;35.67;22.67;;;-3.50;99.90;;;;;;6126535;23;20505;-78
2023/01/22 06:28:41;;;;;;;38.43;22.83;;;-3.50;99.90;;;;;;6126720;23;20420;-78
2023/01/22 06:31:09;;;;;;;35.87;22.87;;;-3.40;99.90;;;;;;6126925;23;20895;-78
2023/01/22 06:33:40;;;;;;;36.20;22.93;;;-3.40;99.90;;;;;;6126128;23;20437;-78
2023/01/22 06:36:08;;;;;;;36.00;22.57;;;-3.30;99.90;;;;;;6126779;23;20469;-78
2023/01/22 06:38:36;;;;;;;36.30;22.87;;;-3.30;99.90;;;;;;6126474;23;20791;-78
2023/01/22 06:41:06;;;;;;;34.90;22.73;;;-3.20;99.90;;;;;;6126478;23;20414;-78
2023/01/22 06:43:36;;;;;;;37.57;23.50;;;-3.20;99.90;;;;;;6126445;23;20410;-78
2023/01/22 06:46:05;;;;;;;37.33;22.80;;;-3.20;99.90;;;;;;6127182;23;20537;-78
2023/01/22 06:48:33;;;;;;;36.50;23.33;;;-3.20;99.90;;;;;;6128284;23;20402;-78
2023/01/22 06:51:01;;;;;;;39.13;23.47;;;-3.20;99.90;;;;;;6129977;23;20505;-78
2023/01/22 06:53:29;;;;;;;41.67;24.10;;;-3.20;99.90;;;;;;6131551;23;20461;-77
2023/01/22 06:55:59;;;;;;;38.60;23.53;;;-3.20;99.90;;;;;;6134953;23;20505;-79
2023/01/22 06:58:30;;;;;;;42.97;25.80;;;-3.20;99.90;;;;;;6129680;23;20504;-77
2023/01/22 07:01:00;;;;;;;49.60;29.00;;;-3.20;99.90;;;;;;6129543;23;20429;-77
2023/01/22 07:03:28;;;;;;;49.87;28.57;;;-3.10;99.90;;;;;;6129227;23;20417;-77
2023/01/22 07:05:58;;;;;;;43.90;26.70;;;-3.10;99.90;;;;;;6129264;23;20509;-78
2023/01/22 07:08:26;;;;;;;45.03;26.80;;;-3.10;99.90;;;;;;6130112;23;20441;-77
2023/01/22 07:10:55;;;;;;;44.63;26.70;;;-3.10;99.90;;;;;;6130329;23;20413;-77
2023/01/22 07:13:23;;;;;;;51.20;28.70;;;-3.00;99.90;;;;;;6126847;23;20412;-77
2023/01/22 07:15:52;;;;;;;53.20;28.30;;;-2.90;99.90;;;;;;6125573;23;20501;-77
2023/01/22 07:18:22;;;;;;;47.53;28.33;;;-2.90;99.90;;;;;;6126345;23;20406;-77
2023/01/22 07:20:51;;;;;;;48.83;27.90;;;-2.90;99.90;;;;;;6126471;23;20407;-78
2023/01/22 07:23:19;;;;;;;43.57;26.80;;;-2.90;99.90;;;;;;6125637;23;20403;-78
2023/01/22 07:25:47;;;;;;;44.10;25.53;;;-2.80;99.90;;;;;;6125412;23;20449;-78
2023/01/22 07:28:18;;;;;;;40.70;25.60;;;-2.80;99.90;;;;;;6126045;23;20465;-78
2023/01/22 07:30:47;;;;;;;40.73;25.70;;;-2.80;99.90;;;;;;6126217;23;20464;-77
2023/01/22 07:33:17;;;;;;;41.63;25.63;;;-2.80;99.90;;;;;;6126219;23;20414;-78
2023/01/22 07:35:52;;;;;;;42.70;26.27;;;-2.70;99.90;;;;;;6126726;23;20420;-78
2023/01/22 07:38:21;;;;;;;40.97;25.47;;;-2.70;99.90;;;;;;6125738;23;20464;-78
2023/01/22 07:40:49;;;;;;;40.63;24.70;;;-2.70;99.90;;;;;;6125827;23;20402;-77
2023/01/22 07:43:17;;;;;;;38.73;24.97;;;-2.70;99.90;;;;;;6124853;23;20437;-79
2023/01/22 07:45:48;;;;;;;47.37;29.90;;;-2.60;99.90;;;;;;6126750;23;20454;-78
2023/01/22 07:48:17;;;;;;;49.50;29.53;;;-2.60;99.90;;;;;;6125861;23;20473;-78
2023/01/22 07:50:45;;;;;;;42.43;26.90;;;-2.60;99.90;;;;;;6126051;23;20410;-78
2023/01/22 07:53:14;;;;;;;40.63;26.33;;;-2.50;99.90;;;;;;6125177;23;20417;-78
2023/01/22 07:55:41;;;;;;;40.13;26.97;;;-2.50;99.90;;;;;;6125461;23;20418;-78
2023/01/22 07:58:11;;;;;;;41.30;26.63;;;-2.50;99.90;;;;;;6126431;23;20428;-78
2023/01/22 08:00:39;;;;;;;40.70;26.50;;;-2.40;99.90;;;;;;6126058;23;20767;-78
2023/01/22 08:03:09;;;;;;;35.60;23.93;;;-2.40;99.90;;;;;;6125324;23;20489;-78
2023/01/22 08:05:42;;;;;;;35.87;23.20;;;-2.40;99.90;;;;;;6125844;23;20445;-78
2023/01/22 08:08:14;;;;;;;38.30;23.73;;;-2.40;99.90;;;;;;6126152;23;20445;-77
2023/01/22 08:10:42;;;;;;;38.50;24.57;;;-2.40;99.90;;;;;;6125367;23;20422;-78
2023/01/22 08:13:10;;;;;;;34.43;23.33;;;-2.30;99.90;;;;;;6125749;23;20412;-78
2023/01/22 08:15:39;;;;;;;29.13;20.27;;;-2.20;99.90;;;;;;6125724;23;20419;-78
2023/01/22 08:18:07;;;;;;;34.73;23.00;;;-2.20;99.90;;;;;;6125183;23;20421;-78
2023/01/22 08:20:39;;;;;;;37.17;24.67;;;-2.20;99.90;;;;;;6126114;23;20407;-77
2023/01/22 08:23:07;;;;;;;38.23;25.13;;;-2.20;99.90;;;;;;6125545;23;20427;-77
2023/01/22 08:25:35;;;;;;;32.93;22.50;;;-2.30;99.90;;;;;;6125590;23;20954;-77
2023/01/22 08:28:06;;;;;;;29.93;21.63;;;-2.20;99.90;;;;;;6125285;23;20421;-78
2023/01/22 08:30:35;;;;;;;29.57;22.27;;;-2.10;99.90;;;;;;6126415;23;20396;-78
2023/01/22 08:33:14;;;;;;;30.07;21.70;;;-2.10;99.90;;;;;;6125847;23;20424;-78
2023/01/22 08:35:44;;;;;;;28.87;20.87;;;-2.00;99.90;;;;;;6126166;23;20402;-78
2023/01/22 08:38:13;;;;;;;26.40;20.17;;;-2.00;99.90;;;;;;6126176;23;20430;-78
2023/01/22 08:40:41;;;;;;;30.27;20.90;;;-1.90;99.90;;;;;;6126384;23;20437;-77
2023/01/22 08:43:09;;;;;;;27.63;20.03;;;-2.00;99.90;;;;;;6125448;23;20422;-78
2023/01/22 08:45:37;;;;;;;30.20;22.20;;;-2.00;99.90;;;;;;6126606;23;20930;-77
2023/01/22 08:48:06;;;;;;;29.60;21.10;;;-1.90;99.90;;;;;;6126723;23;20429;-77
2023/01/22 08:50:34;;;;;;;30.97;21.17;;;-2.00;99.90;;;;;;6127698;23;20485;-77
2023/01/22 08:53:04;;;;;;;30.37;21.20;;;-2.10;99.90;;;;;;6132921;23;20414;-76
2023/01/22 08:55:32;;;;;;;27.57;19.67;;;-2.00;99.90;;;;;;6126499;23;20402;-77
2023/01/22 08:58:00;;;;;;;29.40;21.20;;;-2.20;99.90;;;;;;6125815;23;20754;-78
2023/01/22 09:00:28;;;;;;;29.73;21.13;;;-2.00;99.90;;;;;;6126267;23;20410;-77
2023/01/22 09:03:00;;;;;;;28.43;20.10;;;-1.90;99.90;;;;;;6125955;23;20421;-76
2023/01/22 09:05:28;;;;;;;29.07;21.27;;;-1.90;99.90;;;;;;6126283;23;20493;-77
2023/01/22 09:07:56;;;;;;;30.50;21.20;;;-2.00;99.90;;;;;;6125983;23;20733;-77
2023/01/22 09:10:26;;;;;;;29.27;21.77;;;-1.90;99.90;;;;;;6125380;23;20492;-79
2023/01/22 09:12:54;;;;;;;27.17;20.83;;;-1.90;99.90;;;;;;6125355;23;20428;-76
2023/01/22 09:15:22;;;;;;;27.53;20.37;;;-1.70;99.90;;;;;;6125483;23;20414;-77
2023/01/22 09:17:50;;;;;;;28.80;20.70;;;-1.70;99.90;;;;;;6124996;23;20410;-76
2023/01/22 09:20:18;;;;;;;29.83;21.83;;;-1.80;99.90;;;;;;6125179;23;20454;-78
2023/01/22 09:22:48;;;;;;;27.93;21.00;;;-1.80;99.90;;;;;;6125619;23;20920;-77
2023/01/22 09:25:16;;;;;;;28.30;20.43;;;-1.70;99.90;;;;;;6124991;23;20505;-77
2023/01/22 09:27:45;;;;;;;25.87;20.13;;;-1.60;99.90;;;;;;6124867;23;20510;-77
2023/01/22 09:30:16;;;;;;;29.83;22.13;;;-1.50;99.90;;;;;;6125114;23;20422;-76
2023/01/22 09:32:46;;;;;;;27.27;20.47;;;-1.40;99.90;;;;;;6124782;23;20422;-78
2023/01/22 09:35:14;;;;;;;26.77;20.63;;;-1.40;99.90;;;;;;6124934;23;20909;-76
2023/01/22 09:37:45;;;;;;;29.70;22.43;;;-1.30;99.90;;;;;;6124830;23;20826;-78
2023/01/22 09:40:26;;;;;;;28.03;20.60;;;-1.10;99.90;;;;;;6125270;23;20493;-76
2023/01/22 09:43:05;;;;;;;32.07;22.07;;;-1.00;99.90;;;;;;6124670;23;20412;-76
2023/01/22 09:45:37;;;;;;;29.73;21.53;;;-1.10;99.90;;;;;;6124708;23;20481;-77
2023/01/22 09:48:11;;;;;;;29.17;20.63;;;-1.30;99.90;;;;;;6124772;23;20397;-77
2023/01/22 09:50:42;;;;;;;30.17;21.20;;;-1.20;99.90;;;;;;6124902;23;20709;-77
2023/01/22 09:53:15;;;;;;;30.47;21.57;;;-1.10;99.90;;;;;;6124775;23;20224;-76
2023/01/22 09:55:47;;;;;;;31.87;22.23;;;-1.00;99.90;;;;;;6125382;23;20401;-77
2023/01/22 09:58:21;;;;;;;28.33;20.40;;;-1.00;99.90;;;;;;6125378;23;20190;-78
2023/01/22 10:00:52;;;;;;;28.80;19.90;;;-0.90;99.90;;;;;;6124885;23;20421;-79
2023/01/22 10:03:26;;;;;;;29.57;20.53;;;-1.30;99.90;;;;;;6125346;23;20241;-77
2023/01/22 10:05:58;;;;;;;30.43;20.43;;;-1.20;99.90;;;;;;6125060;23;20907;-78
2023/01/22 10:08:31;;;;;;;26.83;20.33;;;-1.00;99.90;;;;;;6125146;23;20386;-78
2023/01/22 10:11:00;;;;;;;27.70;20.90;;;-0.80;99.90;;;;;;6124639;23;20170;-77
2023/01/22 10:13:33;;;;;;;28.33;21.77;;;-0.80;99.90;;;;;;6124372;23;20244;-78
2023/01/22 10:16:02;;;;;;;29.77;23.10;;;-0.60;99.90;;;;;;6125245;23;20524;-78
2023/01/22 10:18:36;;;;;;;26.80;20.23;;;-0.40;99.90;;;;;;6125044;23;20281;-77
2023/01/22 10:21:07;;;;;;;28.37;20.93;;;-0.50;99.90;;;;;;6124980;23;20197;-79
2023/01/22 10:23:35;;;;;;;26.87;20.97;;;-0.60;99.90;;;;;;6126518;23;20218;-77
2023/01/22 10:26:12;;;;;;;27.40;20.37;;;-0.60;99.90;;;;;;6126794;23;20380;-77
2023/01/22 10:28:47;;;;;;;26.40;19.97;;;-0.70;99.90;;;;;;6125819;23;20246;-77
2023/01/22 10:31:23;;;;;;;25.37;19.73;;;-0.60;99.90;;;;;;6125306;23;20163;-77
2023/01/22 10:33:58;;;;;;;25.37;20.67;;;-0.50;99.90;;;;;;6124457;23;20186;-78
2023/01/22 10:36:27;;;;;;;25.47;20.17;;;-0.40;99.90;;;;;;6124625;23;20179;-77
2023/01/22 10:39:06;;;;;;;23.77;19.13;;;-0.40;99.90;;;;;;6124870;23;20281;-78
2023/01/22 10:41:34;;;;;;;109.60;70.00;;;-0.20;99.90;;;;;;6124669;23;20265;-78
2023/01/22 10:44:26;;;;;;;58.37;38.40;;;0.00;99.90;;;;;;6124537;23;20517;-78
2023/01/22 10:46:55;;;;;;;33.07;26.17;;;0.10;99.90;;;;;;6120942;23;20734;-77
2023/01/22 10:49:26;;;;;;;21.67;18.30;;;0.30;99.90;;;;;;6125365;23;20269;-77
2023/01/22 10:51:56;;;;;;;22.90;17.93;;;0.10;99.90;;;;;;6125979;23;20226;-78
2023/01/22 10:54:30;;;;;;;22.73;18.07;;;0.40;99.90;;;;;;6126670;23;20179;-77
2023/01/22 10:57:07;;;;;;;22.57;18.27;;;0.60;99.90;;;;;;6129263;23;20252;-76
2023/01/22 10:59:37;;;;;;;23.00;17.57;;;0.80;99.90;;;;;;6143784;23;20178;-77
2023/01/22 11:02:22;;;;;;;20.53;17.10;;;0.80;99.90;;;;;;6126488;23;20183;-77
2023/01/22 11:04:51;;;;;;;21.37;16.77;;;0.80;99.90;;;;;;6126436;23;20665;-76
2023/01/22 11:07:21;;;;;;;25.03;18.93;;;0.70;99.90;;;;;;6126453;23;20732;-76
2023/01/22 11:09:54;;;;;;;24.00;19.00;;;0.60;99.90;;;;;;6126425;23;20171;-77
2023/01/22 11:12:26;;;;;;;22.53;17.67;;;0.60;99.90;;;;;;6126416;23;20236;-77
2023/01/22 11:15:05;;;;;;;27.10;20.17;;;0.50;99.90;;;;;;6127057;23;20490;-78
2023/01/22 11:17:38;;;;;;;21.90;17.43;;;0.40;99.90;;;;;;6126715;23;20242;-77
2023/01/22 11:20:20;;;;;;;26.97;20.90;;;0.30;99.90;;;;;;6126789;23;20167;-77
2023/01/22 11:23:06;;;;;;;23.87;18.37;;;0.30;99.90;;;;;;6127784;23;20177;-76
2023/01/22 11:25:43;;;;;;;32.10;25.50;;;0.20;99.90;;;;;;6125276;23;20642;-76
2023/01/22 11:28:28;;;;;;;21.27;15.87;;;0.40;99.90;;;;;;6126062;23;20187;-78
2023/01/22 11:31:21;;;;;;;22.07;15.60;;;0.30;99.90;;;;;;6126071;23;20669;-76
2023/01/22 11:34:19;;;;;;;19.13;15.67;;;0.20;99.90;;;;;;6126072;23;20549;-78
2023/01/22 11:36:55;;;;;;;21.67;17.13;;;0.10;99.90;;;;;;6126297;23;20205;-76
2023/01/22 11:39:38;;;;;;;26.37;20.67;;;0.00;99.90;;;;;;6125660;23;20198;-77
2023/01/22 11:42:22;;;;;;;22.90;18.13;;;0.00;99.90;;;;;;6125851;23;20174;-78
2023/01/22 11:45:03;;;;;;;23.20;18.90;;;0.10;99.90;;;;;;6125872;23;20192;-78
2023/01/22 11:48:05;;;;;;;23.73;18.40;;;0.10;99.90;;;;;;6124693;23;20206;-77
2023/01/22 11:50:41;;;;;;;24.27;19.03;;;0.00;99.90;;;;;;6125900;23;20177;-77
2023/01/22 11:53:24;;;;;;;23.10;18.40;;;-0.10;99.90;;;;;;6125460;23;20166;-78
2023/01/22 11:56:22;;;;;;;23.80;17.97;;;0.00;99.90;;;;;;6126195;23;20178;-77
2023/01/22 11:58:59;;;;;;;23.43;18.10;;;-0.10;99.90;;;;;;6125443;23;20717;-77
2023/01/22 12:01:39;;;;;;;22.40;17.60;;;-0.30;99.90;;;;;;6125748;23;20473;-76
2023/01/22 12:04:29;;;;;;;23.07;17.67;;;-0.10;99.90;;;;;;6125956;23;20213;-76
2023/01/22 12:07:26;;;;;;;19.37;15.30;;;-0.30;99.90;;;;;;6124443;23;20218;-78
2023/01/22 12:10:10;;;;;;;21.60;17.33;;;-0.10;99.90;;;;;;6113318;23;20205;-78
2023/01/22 12:12:47;;;;;;;21.10;16.97;;;0.00;99.90;;;;;;6125735;23;20171;-78
2023/01/22 12:15:32;;;;;;;21.10;16.57;;;0.10;99.90;;;;;;6125858;23;20201;-77
2023/01/22 12:18:21;;;;;;;23.03;18.00;;;0.20;99.90;;;;;;6125816;23;20169;-76
2023/01/22 12:21:04;;;;;;;21.87;16.33;;;-0.30;99.90;;;;;;6125996;23;20268;-76
2023/01/22 12:23:38;;;;;;;24.27;18.87;;;-0.30;99.90;;;;;;6126890;23;20258;-79
2023/01/22 12:26:12;;;;;;;36.13;24.97;;;-0.30;99.90;;;;;;6126980;23;20167;-75
2023/01/22 12:28:46;;;;;;;22.97;17.83;;;-0.10;99.90;;;;;;6126011;23;20194;-76
2023/01/22 12:31:20;;;;;;;18.97;15.47;;;-0.20;99.90;;;;;;6125328;23;20458;-76
2023/01/22 12:33:48;;;;;;;22.13;16.93;;;-0.30;99.90;;;;;;6125263;23;20167;-77
2023/01/22 12:36:21;;;;;;;19.17;15.17;;;-0.40;99.90;;;;;;6125778;23;20214;-78
2023/01/22 12:38:54;;;;;;;18.57;15.10;;;-0.50;99.90;;;;;;6125732;23;20198;-77
2023/01/22 12:41:37;;;;;;;17.67;14.50;;;-0.70;99.90;;;;;;6129121;23;20417;-77
2023/01/22 12:44:14;;;;;;;23.80;17.57;;;-0.70;99.90;;;;;;6130209;23;20760;-76
2023/01/22 12:46:58;;;;;;;24.07;19.13;;;-0.70;99.90;;;;;;6125590;23;20410;-77
2023/01/22 12:49:26;;;;;;;21.13;16.80;;;-0.60;99.90;;;;;;6124914;23;20434;-76
2023/01/22 12:51:58;;;;;;;21.43;17.30;;;-0.60;99.90;;;;;;6125038;23;20461;-75
2023/01/22 12:54:32;;;;;;;22.50;17.30;;;-0.70;99.90;;;;;;6125606;23;20505;-77
2023/01/22 12:57:20;;;;;;;24.57;18.33;;;-0.50;99.90;;;;;;6125464;23;20429;-76